Time;durP1;ratioP1;P1;durP2;ratioP2;P2;SDS_P1;SDS_P2;PMS_P1;PMS_P2;Temp;Humidity;BMP_temperature;BMP_pressure;BME280_temperature;BME280_humidity;BME280_pressure;Samples;Min_cycle;Max_cycle;Signal;HPM_P1;HPM_P2
2021/10/16 00:01:28;;;;;;;14.23;6.10;;;;;;;7.62;97.35;95801.81;5032707;28;20407;-78
2021/10/16 00:03:54;;;;;;;11.98;5.72;;;;;;;7.59;97.26;95797.06;5028177;28;20041;-78
2021/10/16 00:06:19;;;;;;;14.50;5.90;;;;;;;7.66;97.45;95802.91;5031067;28;20096;-79
2021/10/16 00:08:45;;;;;;;11.85;5.90;;;;;;;7.70;96.97;95797.97;5034961;28;20495;-78
2021/10/16 00:11:12;;;;;;;14.70;6.32;;;;;;;7.60;97.49;95798.63;5050091;28;20060;-79
2021/10/16 00:13:38;;;;;;;13.40;6.63;;;;;;;7.40;98.17;95799.97;5039356;28;20045;-77
2021/10/16 00:16:04;;;;;;;9.00;5.70;;;;;;;7.48;98.74;95808.44;5041459;28;20045;-79
2021/10/16 00:18:32;;;;;;;14.60;6.30;;;;;;;7.50;98.93;95803.72;5032128;28;20041;-77
2021/10/16 00:20:58;;;;;;;15.50;6.50;;;;;;;7.59;98.71;95807.53;5032625;28;20048;-78
2021/10/16 00:23:23;;;;;;;10.75;6.28;;;;;;;7.76;97.79;95802.25;5023738;28;20084;-78
2021/10/16 00:25:49;;;;;;;12.88;6.93;;;;;;;7.68;97.86;95800.81;5012229;28;20050;-78
2021/10/16 00:28:15;;;;;;;12.63;6.25;;;;;;;7.66;97.78;95808.16;5035730;28;20037;-78
2021/10/16 00:30:40;;;;;;;15.98;6.25;;;;;;;7.68;97.98;95805.28;5030750;28;20090;-79
2021/10/16 00:33:06;;;;;;;13.52;6.15;;;;;;;7.75;97.80;95811.91;5042317;28;20052;-78
2021/10/16 00:35:31;;;;;;;13.25;6.30;;;;;;;7.66;98.40;95802.91;5034057;28;20038;-78
2021/10/16 00:37:57;;;;;;;14.90;6.32;;;;;;;7.64;98.43;95799.72;5029334;28;20045;-79
2021/10/16 00:40:22;;;;;;;10.93;5.88;;;;;;;7.58;98.84;95805.94;5013496;28;20128;-78
2021/10/16 00:42:51;;;;;;;12.05;6.80;;;;;;;7.42;99.96;95808.34;5029291;28;20418;-78
2021/10/16 00:45:19;;;;;;;11.85;6.53;;;;;;;7.40;99.70;95804.41;5012309;28;20389;-78
2021/10/16 00:47:45;;;;;;;12.40;6.10;;;;;;;7.46;99.24;95799.00;5023718;28;20158;-78
2021/10/16 00:50:12;;;;;;;12.90;6.97;;;;;;;7.51;99.35;95800.09;5041034;28;20041;-78
2021/10/16 00:52:40;;;;;;;12.77;6.80;;;;;;;7.63;98.83;95798.16;5022023;28;20074;-78
2021/10/16 00:55:07;;;;;;;11.98;6.55;;;;;;;7.54;98.63;95804.84;5038415;28;20060;-78
2021/10/16 00:57:33;;;;;;;14.40;6.32;;;;;;;7.46;98.58;95799.00;5031453;28;20120;-79
2021/10/16 00:59:59;;;;;;;13.80;6.43;;;;;;;7.46;99.23;95799.00;5018896;28;20129;-78
2021/10/16 01:02:24;;;;;;;12.32;5.57;;;;;;;7.67;98.84;95794.03;5029688;28;20044;-78
2021/10/16 01:04:50;;;;;;;15.20;6.50;;;;;;;7.70;98.20;95790.09;5031159;28;20419;-79
2021/10/16 01:07:16;;;;;;;13.02;6.22;;;;;;;7.71;97.88;95794.31;5035777;28;20041;-79
2021/10/16 01:09:43;;;;;;;11.40;6.30;;;;;;;7.79;97.82;95791.28;5024293;28;20510;-78
2021/10/16 01:12:09;;;;;;;13.68;6.05;;;;;;;7.74;97.70;95797.25;5014374;28;20045;-78
2021/10/16 01:14:41;;;;;;;10.57;5.82;;;;;;;7.66;98.13;95791.63;5037874;28;20041;-79
2021/10/16 01:17:07;;;;;;;11.70;5.65;;;;;;;7.54;98.21;95796.97;5020783;28;20034;-79
2021/10/16 01:19:36;;;;;;;14.82;6.50;;;;;;;7.50;98.72;95793.25;5011414;28;20537;-79
2021/10/16 01:22:05;;;;;;;12.02;6.13;;;;;;;7.59;99.19;95791.81;5011384;28;20046;-78
2021/10/16 01:24:30;;;;;;;11.15;6.10;;;;;;;7.57;98.48;95783.41;5010843;28;20046;-78
2021/10/16 01:26:56;;;;;;;14.75;6.18;;;;;;;7.57;98.77;95793.88;5010760;28;20562;-78
2021/10/16 01:29:24;;;;;;;12.63;6.13;;;;;;;7.59;99.35;95791.81;5022210;28;20115;-79
2021/10/16 01:31:51;;;;;;;16.65;6.65;;;;;;;7.55;99.37;95790.72;5042425;28;20048;-78
2021/10/16 01:34:17;;;;;;;10.45;5.82;;;;;;;7.42;99.80;95787.41;5032705;28;20737;-78
2021/10/16 01:36:48;;;;;;;11.13;5.95;;;;;;;7.56;100.00;95787.84;5035089;28;20041;-78
2021/10/16 01:39:14;;;;;;;13.77;6.20;;;;;;;7.52;100.00;95788.59;5026954;28;20048;-77
2021/10/16 01:41:40;;;;;;;9.90;5.80;;;;;;;7.63;99.22;95782.44;5024901;28;20046;-78
2021/10/16 01:44:07;;;;;;;13.85;5.78;;;;;;;7.57;99.58;95789.44;5000125;28;20049;-78
2021/10/16 01:46:33;;;;;;;12.13;5.90;;;;;;;7.58;99.88;95787.63;5007926;28;20042;-79
2021/10/16 01:48:59;;;;;;;15.65;5.80;;;;;;;7.68;98.52;95785.13;5029870;28;20076;-80
2021/10/16 01:51:25;;;;;;;17.92;6.60;;;;;;;7.70;98.28;95788.28;5026655;28;20272;-78
2021/10/16 01:53:50;;;;;;;12.85;6.32;;;;;;;7.69;98.22;95786.72;5028384;28;20044;-77
2021/10/16 01:56:16;;;;;;;12.63;6.70;;;;;;;7.52;98.60;95785.97;5025128;28;20049;-78
2021/10/16 01:58:41;;;;;;;10.32;6.35;;;;;;;7.58;98.63;95785.00;5031003;28;20052;-78
2021/10/16 02:01:07;;;;;;;12.85;6.65;;;;;;;7.59;98.77;95781.34;5029477;28;20033;-77
2021/10/16 02:03:33;;;;;;;13.60;6.60;;;;;;;7.67;98.24;95767.84;5011561;28;20041;-77
2021/10/16 02:05:58;;;;;;;11.27;6.18;;;;;;;7.66;97.45;95779.34;5012131;28;20072;-78
2021/10/16 02:08:24;;;;;;;12.27;6.15;;;;;;;7.50;98.50;95767.06;5030401;28;20128;-78
2021/10/16 02:10:49;;;;;;;10.73;6.22;;;;;;;7.44;99.09;95769.66;5029282;28;20039;-78
2021/10/16 02:13:15;;;;;;;13.55;7.22;;;;;;;7.39;99.22;95769.56;5024952;28;20116;-79
2021/10/16 02:15:40;;;;;;;14.93;6.90;;;;;;;7.28;99.58;95765.22;5028770;28;20754;-78
2021/10/16 02:18:06;;;;;;;14.02;6.05;;;;;;;7.28;99.90;95765.22;5030139;28;20049;-77
2021/10/16 02:20:31;;;;;;;12.13;6.22;;;;;;;7.32;99.14;95768.94;5028691;28;20042;-78
2021/10/16 02:22:57;;;;;;;9.32;5.55;;;;;;;7.25;99.88;95760.47;5029437;28;20049;-78
2021/10/16 02:25:23;;;;;;;12.80;7.10;;;;;;;7.27;100.00;95758.44;5003181;28;20049;-78
2021/10/16 02:27:48;;;;;;;12.93;6.43;;;;;;;7.37;99.92;95757.75;5021999;28;20061;-77
2021/10/16 02:30:14;;;;;;;10.98;6.10;;;;;;;7.35;99.53;95763.22;5029825;28;20091;-79
2021/10/16 02:32:40;;;;;;;12.50;6.35;;;;;;;7.33;99.92;95760.06;5016153;28;20038;-78
2021/10/16 02:35:06;;;;;;;13.55;6.30;;;;;;;7.30;99.35;95757.94;5041131;28;20037;-79
2021/10/16 02:37:32;;;;;;;13.43;6.13;;;;;;;7.28;99.64;95765.22;5044605;28;20037;-78
2021/10/16 02:39:57;;;;;;;13.63;6.53;;;;;;;7.24;100.00;95758.88;5028619;28;20154;-77
2021/10/16 02:42:23;;;;;;;10.15;5.72;;;;;;;7.20;99.64;95757.81;5016123;28;20041;-78
2021/10/16 02:44:49;;;;;;;10.80;5.68;;;;;;;7.26;100.00;95767.31;5027825;28;20072;-78
2021/10/16 02:47:15;;;;;;;11.73;6.72;;;;;;;7.24;100.00;95764.94;5029441;28;20618;-80
2021/10/16 02:49:41;;;;;;;13.05;6.20;;;;;;;7.27;99.55;95763.66;4993953;28;20045;-80
2021/10/16 02:52:07;;;;;;;10.00;5.78;;;;;;;7.19;100.00;95766.69;5030031;28;20179;-79
2021/10/16 02:54:32;;;;;;;11.40;6.10;;;;;;;7.22;99.58;95766.19;5037917;28;20084;-79
2021/10/16 02:56:58;;;;;;;14.90;6.13;;;;;;;7.20;99.82;95773.50;5027493;28;20053;-80
2021/10/16 02:59:23;;;;;;;15.07;6.07;;;;;;;6.99;100.00;95765.34;5030856;28;20045;-80
2021/10/16 03:01:49;;;;;;;18.67;6.53;;;;;;;6.91;100.00;95766.56;5029971;28;20045;-80
2021/10/16 03:04:15;;;;;;;15.07;6.45;;;;;;;6.88;100.00;95771.47;5015562;28;20077;-79
2021/10/16 03:06:40;;;;;;;13.35;6.50;;;;;;;6.97;100.00;95777.91;5025096;28;20045;-80
2021/10/16 03:09:06;;;;;;;12.65;5.95;;;;;;;7.01;100.00;95775.59;5030976;28;20046;-79
2021/10/16 03:11:31;;;;;;;11.20;6.40;;;;;;;7.01;100.00;95773.78;5026716;28;20068;-80
2021/10/16 03:13:58;;;;;;;12.18;7.28;;;;;;;7.15;99.96;95781.28;5028831;28;20042;-80
2021/10/16 03:16:24;;;;;;;16.23;6.82;;;;;;;7.24;98.96;95779.81;5024161;28;20052;-80
2021/10/16 03:18:49;;;;;;;13.90;6.30;;;;;;;7.24;99.13;95775.41;5031267;28;20045;-79
2021/10/16 03:21:15;;;;;;;11.35;6.38;;;;;;;7.15;99.67;95776.06;5030777;28;20041;-80
2021/10/16 03:23:41;;;;;;;10.23;5.82;;;;;;;7.21;99.75;95775.06;5010391;28;20050;-82
2021/10/16 03:26:06;;;;;;;15.20;6.15;;;;;;;7.15;99.77;95776.06;5037652;28;20374;-81
2021/10/16 03:28:32;;;;;;;11.45;6.45;;;;;;;7.03;100.00;95769.09;5013924;28;20038;-81
2021/10/16 03:30:57;;;;;;;12.98;6.25;;;;;;;7.09;100.00;95773.34;4997139;28;20065;-79
2021/10/16 03:33:23;;;;;;;11.05;5.65;;;;;;;7.15;100.00;95768.97;5023367;28;20469;-80
2021/10/16 03:35:49;;;;;;;12.20;6.43;;;;;;;7.16;99.49;95767.16;5023411;28;20041;-80
2021/10/16 03:38:14;;;;;;;14.77;6.82;;;;;;;6.99;100.00;95767.19;5028345;28;20092;-79
2021/10/16 03:40:39;;;;;;;11.15;6.18;;;;;;;6.96;100.00;95771.06;5021256;28;20094;-79
2021/10/16 03:43:05;;;;;;;14.20;6.30;;;;;;;6.92;100.00;95772.56;5019225;28;20072;-80
2021/10/16 03:45:31;;;;;;;11.38;6.35;;;;;;;6.93;100.00;95768.94;5022161;28;20050;-80
2021/10/16 03:47:57;;;;;;;14.07;6.88;;;;;;;7.07;100.00;95772.81;4995947;28;20045;-79
2021/10/16 03:50:23;;;;;;;13.55;6.70;;;;;;;7.02;100.00;95772.72;5030513;28;20033;-79
2021/10/16 03:52:48;;;;;;;11.52;6.65;;;;;;;6.93;100.00;95774.16;5027357;28;20580;-78
2021/10/16 03:55:14;;;;;;;11.07;6.55;;;;;;;6.88;100.00;95776.69;5032785;28;20421;-80
2021/10/16 03:57:39;;;;;;;11.18;6.35;;;;;;;6.88;100.00;95776.69;5015498;28;20045;-80
2021/10/16 04:00:12;;;;;;;15.48;6.32;;;;;;;7.11;100.00;95775.72;5038897;28;20048;-80
2021/10/16 04:02:40;;;;;;;12.35;6.40;;;;;;;7.19;100.00;95777.16;5033438;28;20034;-80
2021/10/16 04:05:06;;;;;;;11.02;6.65;;;;;;;7.20;100.00;95773.50;5022261;28;20503;-80
2021/10/16 04:07:31;;;;;;;14.27;6.47;;;;;;;7.03;100.00;95774.31;5027413;28;20111;-79
2021/10/16 04:09:57;;;;;;;11.27;5.80;;;;;;;6.93;100.00;95776.78;5032916;28;20041;-80
2021/10/16 04:12:22;;;;;;;11.07;5.90;;;;;;;6.90;100.00;95779.88;5025088;28;20041;-78
2021/10/16 04:14:48;;;;;;;12.93;6.80;;;;;;;6.83;100.00;95774.03;5039808;28;20069;-79
2021/10/16 04:17:13;;;;;;;10.50;6.00;;;;;;;6.80;100.00;95779.75;5042656;28;20041;-80
2021/10/16 04:19:39;;;;;;;13.70;6.65;;;;;;;6.64;100.00;95776.88;5040327;28;20037;-79
2021/10/16 04:22:04;;;;;;;12.65;6.55;;;;;;;6.67;100.00;95786.84;5037239;28;20064;-80
2021/10/16 04:24:30;;;;;;;15.77;6.95;;;;;;;6.64;100.00;95774.25;5031331;28;20046;-79
2021/10/16 04:26:55;;;;;;;13.00;6.32;;;;;;;6.74;100.00;95782.25;5033048;28;20041;-79
2021/10/16 04:29:24;;;;;;;13.00;6.43;;;;;;;6.82;100.00;95782.91;5032579;28;20037;-78
2021/10/16 04:31:49;;;;;;;13.55;6.40;;;;;;;6.72;100.00;95784.34;5033004;28;20037;-79
2021/10/16 04:34:15;;;;;;;11.85;6.35;;;;;;;6.67;100.00;95776.41;5031426;28;20547;-80
2021/10/16 04:36:40;;;;;;;12.00;6.53;;;;;;;6.74;100.00;95782.25;5038849;28;20041;-79
2021/10/16 04:39:06;;;;;;;14.13;6.30;;;;;;;6.77;100.00;95781.00;5041702;28;20051;-78
2021/10/16 04:41:33;;;;;;;14.77;6.53;;;;;;;6.72;100.00;95778.28;5038572;28;20036;-80
2021/10/16 04:43:59;;;;;;;14.05;6.70;;;;;;;6.89;100.00;95779.06;5014443;28;20050;-79
2021/10/16 04:46:25;;;;;;;12.68;6.40;;;;;;;6.85;100.00;95783.22;5031021;28;20068;-80
2021/10/16 04:48:50;;;;;;;12.13;6.30;;;;;;;6.75;100.00;95773.41;5028529;28;20046;-80
2021/10/16 04:51:16;;;;;;;11.35;6.22;;;;;;;6.69;100.00;95771.72;5032641;28;20046;-78
2021/10/16 04:53:42;;;;;;;11.20;6.38;;;;;;;6.68;100.00;95772.75;5031480;28;20101;-78
2021/10/16 04:56:08;;;;;;;12.43;6.13;;;;;;;6.45;100.00;95775.50;5024404;28;20064;-79
2021/10/16 04:58:33;;;;;;;13.45;6.70;;;;;;;6.26;100.00;95775.72;5034017;28;20495;-78
2021/10/16 05:00:59;;;;;;;14.18;6.57;;;;;;;6.22;100.00;95779.81;5033087;28;20157;-79
2021/10/16 05:03:25;;;;;;;13.38;6.60;;;;;;;6.33;100.00;95771.13;5032491;28;20045;-78
2021/10/16 05:05:53;;;;;;;13.40;7.15;;;;;;;6.41;100.00;95778.59;5026275;28;20045;-79
2021/10/16 05:08:18;;;;;;;13.70;6.50;;;;;;;6.29;100.00;95785.69;5031579;28;20044;-78
2021/10/16 05:10:44;;;;;;;13.80;7.25;;;;;;;6.15;100.00;95784.38;5032345;28;20415;-79
2021/10/16 05:13:09;;;;;;;11.23;6.30;;;;;;;6.06;100.00;95776.94;5004840;28;20038;-79
2021/10/16 05:15:35;;;;;;;13.63;6.95;;;;;;;6.12;100.00;95777.84;5019381;28;20399;-78
2021/10/16 05:18:01;;;;;;;15.15;7.05;;;;;;;6.00;100.00;95783.09;5038963;28;20048;-79
2021/10/16 05:20:26;;;;;;;14.57;6.72;;;;;;;6.01;100.00;95784.69;5038884;28;20051;-78
2021/10/16 05:22:52;;;;;;;12.15;6.43;;;;;;;5.89;100.00;95787.31;5012712;28;20478;-79
2021/10/16 05:25:17;;;;;;;13.65;6.93;;;;;;;5.93;100.00;95787.63;4994857;28;20062;-78
2021/10/16 05:27:43;;;;;;;14.00;7.00;;;;;;;6.00;100.00;95783.09;5002779;28;20084;-79
2021/10/16 05:30:10;;;;;;;13.43;6.15;;;;;;;5.98;100.00;95785.16;5030874;28;20041;-79
2021/10/16 05:32:36;;;;;;;11.38;6.53;;;;;;;5.86;100.00;95792.19;5029629;28;20414;-79
2021/10/16 05:35:02;;;;;;;11.02;6.40;;;;;;;5.68;100.00;95791.34;5013152;28;20120;-79
2021/10/16 05:37:28;;;;;;;12.82;6.55;;;;;;;5.53;100.00;95793.63;5030001;28;20052;-78
2021/10/16 05:39:54;;;;;;;15.95;7.20;;;;;;;5.72;100.00;95792.47;5020380;28;20041;-79
2021/10/16 05:42:19;;;;;;;11.20;6.10;;;;;;;5.84;100.00;95799.47;5020537;28;20041;-79
2021/10/16 05:44:45;;;;;;;12.48;6.60;;;;;;;5.65;100.00;95791.81;5029734;28;20060;-78
2021/10/16 05:47:10;;;;;;;10.93;5.68;;;;;;;5.50;100.00;95799.31;5013356;28;20648;-79
2021/10/16 05:49:36;;;;;;;18.48;6.70;;;;;;;5.50;100.00;95799.31;5030382;28;20068;-79
2021/10/16 05:52:02;;;;;;;12.82;6.57;;;;;;;5.40;100.00;95804.31;5012944;28;20093;-79
2021/10/16 05:54:27;;;;;;;14.93;7.00;;;;;;;5.31;100.00;95807.28;5019636;28;20184;-78
2021/10/16 05:56:53;;;;;;;11.75;6.45;;;;;;;5.28;100.00;95812.19;5031051;28;20053;-78
2021/10/16 05:59:18;;;;;;;14.80;6.70;;;;;;;5.22;100.00;95802.66;5035033;28;20052;-78
2021/10/16 06:01:44;;;;;;;13.13;6.25;;;;;;;5.34;100.00;95814.69;5026193;28;20038;-78
2021/10/16 06:04:10;;;;;;;16.02;7.35;;;;;;;5.31;100.00;95812.50;5041492;28;20048;-77
2021/10/16 06:06:35;;;;;;;15.25;6.78;;;;;;;5.26;100.00;95809.78;5039303;28;20774;-78
2021/10/16 06:09:01;;;;;;;22.30;6.88;;;;;;;5.19;100.00;95814.34;5001843;28;20046;-78
2021/10/16 06:11:27;;;;;;;18.17;7.00;;;;;;;5.24;100.00;95819.66;5023499;28;20072;-77
2021/10/16 06:13:52;;;;;;;15.88;7.07;;;;;;;5.33;100.00;95818.31;5012009;28;20042;-78
2021/10/16 06:16:18;;;;;;;16.60;7.10;;;;;;;5.13;100.00;95815.22;5019283;28;20116;-79
2021/10/16 06:18:44;;;;;;;13.00;6.35;;;;;;;5.15;100.00;95819.19;5029912;28;20052;-78
2021/10/16 06:21:11;;;;;;;14.98;7.30;;;;;;;5.24;100.00;95827.47;5027023;28;20044;-77
2021/10/16 06:23:37;;;;;;;15.80;6.45;;;;;;;5.35;100.00;95818.06;5041904;28;20410;-78
2021/10/16 06:26:03;;;;;;;19.70;7.20;;;;;;;5.31;100.00;95822.94;5026243;28;20057;-78
2021/10/16 06:28:29;;;;;;;16.20;7.00;;;;;;;5.16;100.00;95825.22;5030987;28;20773;-77
2021/10/16 06:30:54;;;;;;;16.35;8.43;;;;;;;5.05;100.00;95831.22;5018150;28;20121;-77
2021/10/16 06:33:20;;;;;;;15.90;7.50;;;;;;;5.07;100.00;95826.56;5011361;28;20400;-77
2021/10/16 06:35:46;;;;;;;17.98;8.15;;;;;;;5.22;100.00;95834.75;5021050;28;20053;-79
2021/10/16 06:38:11;;;;;;;16.27;7.72;;;;;;;5.28;100.00;95823.41;5028141;28;20045;-78
2021/10/16 06:40:37;;;;;;;14.50;7.05;;;;;;;5.31;100.00;95828.16;5024150;28;20045;-78
2021/10/16 06:43:03;;;;;;;17.02;7.90;;;;;;;5.28;100.00;95828.63;5026268;28;20048;-78
2021/10/16 06:45:28;;;;;;;17.55;7.47;;;;;;;5.35;100.00;95834.50;5023638;28;20049;-78
2021/10/16 06:47:54;;;;;;;15.88;8.30;;;;;;;5.36;100.00;95830.88;5029472;28;20060;-79
2021/10/16 06:50:19;;;;;;;17.85;7.97;;;;;;;5.25;100.00;95834.28;5020738;28;20168;-79
2021/10/16 06:52:45;;;;;;;20.38;8.07;;;;;;;5.20;100.00;95839.38;5028929;28;20041;-78
2021/10/16 06:55:11;;;;;;;16.73;8.23;;;;;;;5.14;100.00;95848.13;5023196;28;20100;-78
2021/10/16 06:57:36;;;;;;;17.17;8.77;;;;;;;5.06;100.00;95845.84;5029121;28;20048;-78
2021/10/16 07:00:04;;;;;;;18.42;9.52;;;;;;;5.00;100.00;95845.75;5028144;28;20140;-78
2021/10/16 07:02:29;;;;;;;18.33;8.77;;;;;;;4.97;100.00;95848.81;5027371;28;20045;-78
2021/10/16 07:04:55;;;;;;;22.38;8.90;;;;;;;5.14;100.00;95848.94;5030158;28;20057;-78
2021/10/16 07:07:21;;;;;;;19.65;8.95;;;;;;;5.21;100.00;95851.41;5030288;28;20568;-78
2021/10/16 07:09:46;;;;;;;17.33;8.50;;;;;;;5.14;100.00;95853.34;5016885;28;20057;-77
2021/10/16 07:12:11;;;;;;;14.63;8.10;;;;;;;5.27;100.00;95853.16;5023343;28;20042;-78
2021/10/16 07:14:37;;;;;;;18.13;8.15;;;;;;;5.33;100.00;95854.84;5030419;28;20116;-77
2021/10/16 07:17:03;;;;;;;25.13;9.52;;;;;;;5.38;100.00;95865.38;5017449;28;20046;-78
2021/10/16 07:19:28;;;;;;;18.27;8.93;;;;;;;5.45;100.00;95864.47;5028739;28;20044;-78
2021/10/16 07:21:54;;;;;;;17.38;8.52;;;;;;;5.58;100.00;95864.25;5036694;28;20088;-78
2021/10/16 07:24:19;;;;;;;17.75;8.80;;;;;;;5.75;100.00;95858.31;5026856;28;20049;-78
2021/10/16 07:26:45;;;;;;;15.27;7.75;;;;;;;5.82;100.00;95864.19;5031424;28;20045;-78
2021/10/16 07:29:11;;;;;;;15.18;8.20;;;;;;;5.84;100.00;95865.56;5034507;28;20042;-78
2021/10/16 07:31:37;;;;;;;17.65;8.30;;;;;;;6.03;100.00;95868.88;5026182;28;20077;-77
2021/10/16 07:34:03;;;;;;;19.73;8.90;;;;;;;6.03;100.00;95874.09;5014602;28;20120;-78
2021/10/16 07:36:37;;;;;;;15.23;8.30;;;;;;;6.07;100.00;95877.03;5009523;28;20045;-78
2021/10/16 07:39:07;;;;;;;19.83;9.18;;;;;;;6.18;100.00;95878.03;5023796;28;20045;-77
2021/10/16 07:41:34;;;;;;;20.30;10.05;;;;;;;6.36;100.00;95875.22;5034143;28;20679;-78
2021/10/16 07:43:59;;;;;;;19.98;10.18;;;;;;;6.52;100.00;95870.28;5043979;28;20069;-78
2021/10/16 07:46:25;;;;;;;19.27;9.32;;;;;;;6.54;100.00;95876.06;5032718;28;20485;-79
2021/10/16 07:48:51;;;;;;;19.67;9.75;;;;;;;6.68;100.00;95876.56;5033380;28;20447;-77
2021/10/16 07:51:17;;;;;;;21.42;10.80;;;;;;;6.75;100.00;95872.78;5033642;28;20485;-78
2021/10/16 07:53:42;;;;;;;20.80;10.55;;;;;;;6.88;100.00;95876.94;5025773;28;20045;-77
2021/10/16 07:56:08;;;;;;;17.35;9.90;;;;;;;6.90;100.00;95879.31;5021025;28;20052;-78
2021/10/16 07:58:35;;;;;;;19.67;10.35;;;;;;;6.94;100.00;95875.19;5043029;28;20034;-78
2021/10/16 08:01:01;;;;;;;22.13;11.23;;;;;;;7.24;100.00;95874.06;5036969;28;20580;-78
2021/10/16 08:03:26;;;;;;;22.60;10.35;;;;;;;7.37;100.00;95886.84;5045074;28;20090;-78
2021/10/16 08:05:52;;;;;;;27.20;11.88;;;;;;;7.56;99.64;95884.75;5015367;28;20045;-77
2021/10/16 08:08:17;;;;;;;23.25;11.57;;;;;;;7.61;100.00;95876.19;5019203;28;20491;-77
2021/10/16 08:10:43;;;;;;;28.67;14.32;;;;;;;7.71;99.71;95883.38;5021281;28;20042;-77
2021/10/16 08:13:09;;;;;;;28.20;13.65;;;;;;;7.74;99.57;95881.09;5025534;28;20050;-77
2021/10/16 08:15:34;;;;;;;25.90;12.52;;;;;;;7.83;99.61;95880.66;5014490;28;20522;-78
2021/10/16 08:18:01;;;;;;;26.95;13.20;;;;;;;8.26;97.61;95879.06;5031346;28;20124;-78
2021/10/16 08:20:27;;;;;;;30.67;14.80;;;;;;;8.39;97.44;95880.53;5021599;28;20487;-78
2021/10/16 08:22:53;;;;;;;28.42;14.75;;;;;;;8.55;96.43;95882.31;5025305;28;20041;-77
2021/10/16 08:25:18;;;;;;;25.25;13.60;;;;;;;8.58;96.03;95881.03;5020288;28;20506;-77
2021/10/16 08:27:48;;;;;;;31.75;14.38;;;;;;;8.72;95.22;95879.59;5031022;28;20111;-77
2021/10/16 08:30:15;;;;;;;27.75;14.77;;;;;;;8.67;95.97;95876.91;5045834;28;20044;-77
2021/10/16 08:32:41;;;;;;;35.83;15.50;;;;;;;8.40;96.11;95885.53;5024843;28;20563;-77
2021/10/16 08:35:08;;;;;;;31.05;15.05;;;;;;;8.39;96.81;95878.72;5034224;28;20033;-77
2021/10/16 08:37:33;;;;;;;30.60;14.63;;;;;;;8.63;96.12;95879.25;5030960;28;20041;-77
2021/10/16 08:39:59;;;;;;;34.38;15.98;;;;;;;8.95;94.61;95885.56;5031169;28;20099;-77
2021/10/16 08:42:25;;;;;;;29.20;15.27;;;;;;;8.83;95.32;95878.66;5027811;28;20068;-77
2021/10/16 08:44:57;;;;;;;31.90;15.20;;;;;;;8.82;95.52;95877.06;5032005;28;20132;-77
2021/10/16 08:47:24;;;;;;;35.75;16.58;;;;;;;8.84;95.65;95885.47;5031284;28;20042;-78
2021/10/16 08:49:51;;;;;;;33.67;16.70;;;;;;;9.12;94.92;95886.25;5036871;28;20495;-78
2021/10/16 08:52:17;;;;;;;35.45;16.90;;;;;;;8.86;93.92;95881.81;5048629;28;20060;-78
2021/10/16 08:54:43;;;;;;;34.80;15.82;;;;;;;8.92;94.14;95886.06;5026650;28;20515;-77
2021/10/16 08:57:08;;;;;;;35.40;17.88;;;;;;;8.87;94.14;95888.66;5025392;28;20056;-77
2021/10/16 08:59:34;;;;;;;37.17;17.83;;;;;;;8.83;94.57;95894.41;5030769;28;20038;-77
2021/10/16 09:02:02;;;;;;;38.10;16.92;;;;;;;8.92;93.63;95891.31;5038761;28;20048;-77
2021/10/16 09:04:29;;;;;;;33.38;16.35;;;;;;;9.15;94.31;95885.75;5014271;28;20049;-78
2021/10/16 09:06:54;;;;;;;34.22;15.25;;;;;;;9.70;89.75;95880.34;5013542;28;20045;-78
2021/10/16 09:09:25;;;;;;;35.58;15.60;;;;;;;10.04;88.53;95885.25;5029016;28;20041;-77
2021/10/16 09:11:53;;;;;;;33.00;15.50;;;;;;;10.08;87.09;95886.31;5031578;28;20582;-77
2021/10/16 09:14:27;;;;;;;34.67;16.25;;;;;;;9.68;89.89;95887.69;5031512;28;20037;-77
2021/10/16 09:16:58;;;;;;;35.72;17.27;;;;;;;9.59;90.71;95886.59;5033989;28;20060;-78
2021/10/16 09:19:32;;;;;;;35.63;16.83;;;;;;;9.67;90.22;95891.38;5025979;28;20418;-78
2021/10/16 09:22:18;;;;;;;37.33;17.02;;;;;;;9.71;89.71;95887.16;5014650;28;20517;-77
2021/10/16 09:24:47;;;;;;;31.80;14.40;;;;;;;9.88;88.29;95877.28;5003708;28;20079;-83
2021/10/16 09:27:18;;;;;;;32.10;15.38;;;;;;;9.80;87.18;95885.66;5017285;28;20049;-77
2021/10/16 09:29:48;;;;;;;32.40;15.38;;;;;;;10.15;87.46;95884.25;5029664;28;20120;-79
2021/10/16 09:32:22;;;;;;;29.15;14.45;;;;;;;10.67;87.03;95881.78;5024542;28;20046;-85
2021/10/16 09:34:49;;;;;;;29.20;15.18;;;;;;;10.96;84.97;95878.69;5020838;28;20038;-78
2021/10/16 09:37:20;;;;;;;31.27;15.50;;;;;;;11.14;84.07;95875.53;5010470;28;20068;-79
2021/10/16 09:39:49;;;;;;;29.35;13.65;;;;;;;11.50;83.25;95878.13;5031265;28;20102;-77
2021/10/16 09:42:45;;;;;;;28.42;14.60;;;;;;;11.11;81.88;95881.31;5024798;28;20037;-80
2021/10/16 09:45:14;;;;;;;25.42;13.27;;;;;;;11.96;80.33;95878.06;5018201;28;20049;-79
2021/10/16 09:47:55;;;;;;;28.65;13.07;;;;;;;12.87;76.08;95871.81;5027701;28;20041;-83
2021/10/16 09:50:21;;;;;;;28.25;13.93;;;;;;;11.80;76.79;95873.88;5009682;28;20431;-79
2021/10/16 09:52:48;;;;;;;26.83;13.55;;;;;;;12.70;75.31;95881.97;5029374;28;20046;-80
2021/10/16 09:55:15;;;;;;;22.88;12.20;;;;;;;14.41;69.89;95868.78;5023035;28;20556;-80
2021/10/16 09:57:42;;;;;;;23.23;12.23;;;;;;;14.10;68.42;95869.16;5003916;28;20045;-79
2021/10/16 10:00:09;;;;;;;21.73;10.63;;;;;;;14.78;66.67;95872.56;5019310;28;20503;-80
2021/10/16 10:02:35;;;;;;;24.38;12.27;;;;;;;14.95;65.89;95864.09;5018652;28;20064;-82
2021/10/16 10:05:07;;;;;;;22.60;11.75;;;;;;;15.75;65.62;95857.72;5028342;28;20693;-82
2021/10/16 10:07:34;;;;;;;22.25;12.23;;;;;;;14.19;66.96;95867.44;5030110;28;20088;-78
2021/10/16 10:10:02;;;;;;;25.05;12.73;;;;;;;13.91;68.55;95866.47;4993380;28;20046;-79
2021/10/16 10:12:28;;;;;;;26.20;12.05;;;;;;;14.74;64.98;95867.06;5021418;28;20042;-79
2021/10/16 10:14:54;;;;;;;23.95;12.88;;;;;;;14.48;64.94;95861.25;5014760;28;20048;-79
2021/10/16 10:17:38;;;;;;;22.88;11.70;;;;;;;13.59;69.41;95859.91;5024858;28;20046;-79
2021/10/16 10:20:10;;;;;;;23.33;12.33;;;;;;;14.48;65.07;95863.91;5029077;28;20076;-81
2021/10/16 10:22:37;;;;;;;24.10;12.13;;;;;;;14.95;64.72;95862.22;5029319;28;20057;-79
2021/10/16 10:25:20;;;;;;;19.90;11.05;;;;;;;13.06;70.17;95863.22;5027396;28;20160;-82
2021/10/16 10:27:46;;;;;;;22.27;11.27;;;;;;;12.15;73.21;95871.41;5012366;28;21192;-84
2021/10/16 10:30:33;;;;;;;22.75;12.00;;;;;;;12.07;75.41;95864.88;5020467;28;20052;-80
2021/10/16 10:33:22;;;;;;;22.15;11.57;;;;;;;11.75;74.88;95873.88;5025129;28;20462;-79
2021/10/16 10:35:58;;;;;;;23.70;12.77;;;;;;;11.90;74.20;95865.94;5024378;28;20057;-85
2021/10/16 10:38:31;;;;;;;24.27;12.32;;;;;;;12.64;72.75;95868.81;5027837;28;20045;-80
2021/10/16 10:40:56;;;;;;;25.63;12.38;;;;;;;14.17;67.81;95856.38;5027950;28;20048;-83
2021/10/16 10:43:39;;;;;;;23.75;11.50;;;;;;;13.28;69.74;95855.66;4994565;28;20034;-78
2021/10/16 10:46:14;;;;;;;22.10;10.60;;;;;;;14.13;65.77;95858.00;5022973;28;20065;-79
2021/10/16 10:48:47;;;;;;;23.27;10.98;;;;;;;12.85;71.10;95860.75;5028283;28;20053;-80
2021/10/16 10:51:27;;;;;;;22.77;11.38;;;;;;;12.15;72.12;95869.56;5028821;28;20499;-79
2021/10/16 10:54:13;;;;;;;26.73;12.15;;;;;;;11.80;75.31;95865.97;5028327;28;20049;-79
2021/10/16 10:56:41;;;;;;;23.75;12.57;;;;;;;12.08;74.15;95861.16;4993859;28;20463;-79
2021/10/16 10:59:09;;;;;;;26.75;12.40;;;;;;;11.96;74.93;95864.88;5008895;28;20416;-79
2021/10/16 11:01:50;;;;;;;24.20;12.75;;;;;;;11.77;75.34;95855.94;4993051;28;20042;-79
2021/10/16 11:04:39;;;;;;;23.80;11.75;;;;;;;11.94;74.74;95861.72;5012675;28;20511;-79
2021/10/16 11:07:10;;;;;;;24.00;11.70;;;;;;;12.98;71.92;95852.19;5013193;28;20054;-79
2021/10/16 11:09:38;;;;;;;24.70;12.48;;;;;;;12.10;73.06;95848.50;5013780;28;20057;-79
2021/10/16 11:12:04;;;;;;;21.55;11.77;;;;;;;13.16;72.33;95849.97;5015668;28;20163;-79
2021/10/16 11:14:35;;;;;;;23.10;10.85;;;;;;;14.80;66.46;95842.06;5014373;28;20663;-78
2021/10/16 11:17:03;;;;;;;25.27;12.02;;;;;;;15.58;63.55;95841.59;5013510;28;20049;-79
2021/10/16 11:19:29;;;;;;;25.52;12.38;;;;;;;15.19;62.19;95834.84;5013309;28;20120;-79
2021/10/16 11:21:57;;;;;;;19.60;10.90;;;;;;;16.00;59.75;95831.78;5021062;28;20763;-79
2021/10/16 11:24:24;;;;;;;18.20;9.85;;;;;;;16.48;58.83;95824.44;5016945;28;20466;-79
2021/10/16 11:26:52;;;;;;;21.75;10.13;;;;;;;17.69;54.74;95818.38;5013212;28;20045;-79